sensor_id;sensor_type;location;lat;lon;timestamp;temperature;humidity
41060;DHT22;26811;53.160;8.202;2023-03-01T00:04:34;-0.80;99.90
41060;DHT22;26811;53.160;8.202;2023-03-01T00:09:36;-0.80;99.90
41060;DHT22;26811;53.160;8.202;2023-03-01T00:14:37;-0.90;99.90
41060;DHT22;26811;53.160;8.202;2023-03-01T00:19:38;-0.90;99.90
41060;DHT22;26811;53.160;8.202;2023-03-01T00:24:38;-0.90;99.90
41060;DHT22;26811;53.160;8.202;2023-03-01T00:29:39;-1.00;99.90
41060;DHT22;26811;53.160;8.202;2023-03-01T00:34:39;-1.00;99.90
41060;DHT22;26811;53.160;8.202;2023-03-01T00:39:40;-1.00;99.90
41060;DHT22;26811;53.160;8.202;2023-03-01T00:44:40;-1.10;99.90
41060;DHT22;26811;53.160;8.202;2023-03-01T00:49:41;-1.10;99.90
41060;DHT22;26811;53.160;8.202;2023-03-01T00:54:41;-1.10;99.90
41060;DHT22;26811;53.160;8.202;2023-03-01T00:59:42;-1.10;99.90
41060;DHT22;26811;53.160;8.202;2023-03-01T01:04:42;-1.20;99.90
41060;DHT22;26811;53.160;8.202;2023-03-01T01:09:43;-1.20;99.90
41060;DHT22;26811;53.160;8.202;2023-03-01T01:14:43;-1.30;99.90
41060;DHT22;26811;53.160;8.202;2023-03-01T01:19:44;-1.30;99.90
41060;DHT22;26811;53.160;8.202;2023-03-01T01:24:44;-1.30;99.90
41060;DHT22;26811;53.160;8.202;2023-03-01T01:29:45;-1.40;99.90
41060;DHT22;26811;53.160;8.202;2023-03-01T01:34:45;-1.30;99.90
41060;DHT22;26811;53.160;8.202;2023-03-01T01:39:47;-1.40;99.90
41060;DHT22;26811;53.160;8.202;2023-03-01T01:44:47;-1.40;99.90
41060;DHT22;26811;53.160;8.202;2023-03-01T01:49:54;-1.50;99.90
41060;DHT22;26811;53.160;8.202;2023-03-01T02:00:10;-1.50;99.90
41060;DHT22;26811;53.160;8.202;2023-03-01T02:05:25;-1.60;99.90
41060;DHT22;26811;53.160;8.202;2023-03-01T02:10:28;-1.60;99.90
41060;DHT22;26811;53.160;8.202;2023-03-01T02:15:36;-1.60;99.90
41060;DHT22;26811;53.160;8.202;2023-03-01T02:20:50;-1.70;99.90
41060;DHT22;26811;53.160;8.202;2023-03-01T02:26:06;-1.70;99.90
41060;DHT22;26811;53.160;8.202;2023-03-01T02:31:11;-1.70;99.90
41060;DHT22;26811;53.160;8.202;2023-03-01T02:36:45;-1.70;99.90
41060;DHT22;26811;53.160;8.202;2023-03-01T02:41:50;-1.80;99.90
41060;DHT22;26811;53.160;8.202;2023-03-01T02:46:53;-1.80;99.90
41060;DHT22;26811;53.160;8.202;2023-03-01T02:52:17;-1.80;99.90
41060;DHT22;26811;53.160;8.202;2023-03-01T02:57:19;-1.80;99.90
41060;DHT22;26811;53.160;8.202;2023-03-01T03:02:25;-1.90;99.90
41060;DHT22;26811;53.160;8.202;2023-03-01T03:07:40;-1.90;99.90
41060;DHT22;26811;53.160;8.202;2023-03-01T03:12:41;-1.90;99.90
41060;DHT22;26811;53.160;8.202;2023-03-01T03:17:42;-1.90;99.90
41060;DHT22;26811;53.160;8.202;2023-03-01T03:22:42;-1.90;99.90
41060;DHT22;26811;53.160;8.202;2023-03-01T03:27:45;-2.00;99.90
41060;DHT22;26811;53.160;8.202;2023-03-01T03:32:47;-2.00;99.90
41060;DHT22;26811;53.160;8.202;2023-03-01T03:37:53;-2.00;99.90
41060;DHT22;26811;53.160;8.202;2023-03-01T03:43:06;-2.00;99.90
41060;DHT22;26811;53.160;8.202;2023-03-01T03:48:08;-2.10;99.90
41060;DHT22;26811;53.160;8.202;2023-03-01T03:53:11;-2.10;99.90
41060;DHT22;26811;53.160;8.202;2023-03-01T03:58:12;-2.10;99.90
41060;DHT22;26811;53.160;8.202;2023-03-01T04:03:14;-2.10;99.90
41060;DHT22;26811;53.160;8.202;2023-03-01T04:08:15;-2.10;99.90
41060;DHT22;26811;53.160;8.202;2023-03-01T04:13:22;-2.10;99.90
41060;DHT22;26811;53.160;8.202;2023-03-01T04:18:23;-2.10;99.90
41060;DHT22;26811;53.160;8.202;2023-03-01T04:23:25;-2.10;99.90
41060;DHT22;26811;53.160;8.202;2023-03-01T04:28:33;-2.10;99.90
41060;DHT22;26811;53.160;8.202;2023-03-01T04:33:36;-2.10;99.90
41060;DHT22;26811;53.160;8.202;2023-03-01T04:38:37;-2.20;99.90
41060;DHT22;26811;53.160;8.202;2023-03-01T04:43:38;-2.20;99.90
41060;DHT22;26811;53.160;8.202;2023-03-01T04:48:40;-2.20;99.90
41060;DHT22;26811;53.160;8.202;2023-03-01T04:53:42;-2.20;99.90
41060;DHT22;26811;53.160;8.202;2023-03-01T04:58:43;-2.30;99.90
41060;DHT22;26811;53.160;8.202;2023-03-01T05:03:45;-2.30;99.90
41060;DHT22;26811;53.160;8.202;2023-03-01T05:08:46;-2.30;99.90
41060;DHT22;26811;53.160;8.202;2023-03-01T05:13:47;-2.40;99.90
41060;DHT22;26811;53.160;8.202;2023-03-01T05:18:56;-2.40;99.90
41060;DHT22;26811;53.160;8.202;2023-03-01T05:23:57;-2.40;99.90
41060;DHT22;26811;53.160;8.202;2023-03-01T05:28:58;-2.50;99.90
41060;DHT22;26811;53.160;8.202;2023-03-01T05:33:59;-2.50;99.90
41060;DHT22;26811;53.160;8.202;2023-03-01T05:38:59;-2.50;99.90
41060;DHT22;26811;53.160;8.202;2023-03-01T05:44:00;-2.50;99.90
41060;DHT22;26811;53.160;8.202;2023-03-01T05:49:00;-2.50;99.90
41060;DHT22;26811;53.160;8.202;2023-03-01T05:54:02;-2.60;99.90
41060;DHT22;26811;53.160;8.202;2023-03-01T05:59:05;-2.60;99.90
41060;DHT22;26811;53.160;8.202;2023-03-01T06:04:06;-2.60;99.90
41060;DHT22;26811;53.160;8.202;2023-03-01T06:09:07;-2.50;99.90
41060;DHT22;26811;53.160;8.202;2023-03-01T06:14:09;-2.60;99.90
41060;DHT22;26811;53.160;8.202;2023-03-01T06:19:10;-2.60;99.90
41060;DHT22;26811;53.160;8.202;2023-03-01T06:24:11;-2.60;99.90
41060;DHT22;26811;53.160;8.202;2023-03-01T06:29:11;-2.60;99.90
41060;DHT22;26811;53.160;8.202;2023-03-01T06:34:12;-2.50;99.90
41060;DHT22;26811;53.160;8.202;2023-03-01T06:39:13;-2.50;99.90
41060;DHT22;26811;53.160;8.202;2023-03-01T06:44:14;-2.40;99.90
41060;DHT22;26811;53.160;8.202;2023-03-01T06:49:14;-2.30;99.90
41060;DHT22;26811;53.160;8.202;2023-03-01T06:54:16;-2.30;99.90
41060;DHT22;26811;53.160;8.202;2023-03-01T06:59:18;-2.10;99.90
41060;DHT22;26811;53.160;8.202;2023-03-01T07:04:19;-2.00;99.90
41060;DHT22;26811;53.160;8.202;2023-03-01T07:09:19;-1.90;99.90
41060;DHT22;26811;53.160;8.202;2023-03-01T07:14:22;-1.60;99.90
41060;DHT22;26811;53.160;8.202;2023-03-01T07:19:24;-1.40;99.90
41060;DHT22;26811;53.160;8.202;2023-03-01T07:24:25;-1.10;99.90
41060;DHT22;26811;53.160;8.202;2023-03-01T07:29:26;-0.80;99.90
41060;DHT22;26811;53.160;8.202;2023-03-01T07:34:26;-0.50;99.90
41060;DHT22;26811;53.160;8.202;2023-03-01T07:39:27;-0.20;99.90
41060;DHT22;26811;53.160;8.202;2023-03-01T07:44:27;-0.10;99.90
41060;DHT22;26811;53.160;8.202;2023-03-01T07:49:28;0.20;99.90
41060;DHT22;26811;53.160;8.202;2023-03-01T07:54:29;0.40;99.90
41060;DHT22;26811;53.160;8.202;2023-03-01T07:59:29;0.70;99.90
41060;DHT22;26811;53.160;8.202;2023-03-01T08:04:30;1.00;99.90
41060;DHT22;26811;53.160;8.202;2023-03-01T08:09:30;1.20;99.90
41060;DHT22;26811;53.160;8.202;2023-03-01T08:14:32;1.30;99.90
41060;DHT22;26811;53.160;8.202;2023-03-01T08:19:32;1.50;99.90
41060;DHT22;26811;53.160;8.202;2023-03-01T08:24:34;1.90;99.90
41060;DHT22;26811;53.160;8.202;2023-03-01T08:29:35;2.30;99.90
41060;DHT22;26811;53.160;8.202;2023-03-01T08:34:36;3.00;99.90
41060;DHT22;26811;53.160;8.202;2023-03-01T08:39:36;3.90;99.90
41060;DHT22;26811;53.160;8.202;2023-03-01T08:44:37;4.50;99.90
41060;DHT22;26811;53.160;8.202;2023-03-01T08:49:37;4.80;99.90
41060;DHT22;26811;53.160;8.202;2023-03-01T08:54:38;5.40;99.90
41060;DHT22;26811;53.160;8.202;2023-03-01T08:59:38;6.20;99.90
41060;DHT22;26811;53.160;8.202;2023-03-01T09:04:39;7.00;99.90
41060;DHT22;26811;53.160;8.202;2023-03-01T09:09:40;7.40;99.90
41060;DHT22;26811;53.160;8.202;2023-03-01T09:14:40;7.60;99.90
41060;DHT22;26811;53.160;8.202;2023-03-01T09:19:41;7.50;99.90
41060;DHT22;26811;53.160;8.202;2023-03-01T09:24:42;7.40;99.90
41060;DHT22;26811;53.160;8.202;2023-03-01T09:29:42;7.30;99.90
41060;DHT22;26811;53.160;8.202;2023-03-01T09:34:46;7.50;99.90
41060;DHT22;26811;53.160;8.202;2023-03-01T09:40:05;7.70;99.90
41060;DHT22;26811;53.160;8.202;2023-03-01T09:45:13;7.90;99.90
41060;DHT22;26811;53.160;8.202;2023-03-01T09:50:20;8.10;99.90
41060;DHT22;26811;53.160;8.202;2023-03-01T09:55:39;8.20;99.90
41060;DHT22;26811;53.160;8.202;2023-03-01T10:00:43;8.20;99.90
41060;DHT22;26811;53.160;8.202;2023-03-01T10:06:28;8.20;99.90
41060;DHT22;26811;53.160;8.202;2023-03-01T10:11:32;8.20;99.30
41060;DHT22;26811;53.160;8.202;2023-03-01T10:16:43;8.30;99.90
41060;DHT22;26811;53.160;8.202;2023-03-01T10:21:47;8.40;99.10
41060;DHT22;26811;53.160;8.202;2023-03-01T10:26:54;8.50;97.90
41060;DHT22;26811;53.160;8.202;2023-03-01T10:31:56;8.60;97.50
41060;DHT22;26811;53.160;8.202;2023-03-01T10:37:01;8.60;98.10
41060;DHT22;26811;53.160;8.202;2023-03-01T10:42:21;8.60;98.70
41060;DHT22;26811;53.160;8.202;2023-03-01T10:47:26;8.70;98.80
41060;DHT22;26811;53.160;8.202;2023-03-01T10:52:30;8.80;97.20
41060;DHT22;26811;53.160;8.202;2023-03-01T10:57:35;8.90;98.30
41060;DHT22;26811;53.160;8.202;2023-03-01T11:02:37;8.90;98.80
41060;DHT22;26811;53.160;8.202;2023-03-01T11:08:07;9.10;98.90
41060;DHT22;26811;53.160;8.202;2023-03-01T11:13:16;9.10;99.20
41060;DHT22;26811;53.160;8.202;2023-03-01T11:18:22;9.20;97.80
41060;DHT22;26811;53.160;8.202;2023-03-01T11:23:22;8.90;98.20
41060;DHT22;26811;53.160;8.202;2023-03-01T11:28:25;8.60;98.70
41060;DHT22;26811;53.160;8.202;2023-03-01T11:38:46;8.60;99.90
41060;DHT22;26811;53.160;8.202;2023-03-01T11:43:58;8.50;99.90
41060;DHT22;26811;53.160;8.202;2023-03-01T11:54:30;8.70;99.90
41060;DHT22;26811;53.160;8.202;2023-03-01T11:59:38;8.80;99.90
41060;DHT22;26811;53.160;8.202;2023-03-01T12:05:16;8.80;99.90
41060;DHT22;26811;53.160;8.202;2023-03-01T12:10:25;8.70;99.90
41060;DHT22;26811;53.160;8.202;2023-03-01T12:15:44;8.80;99.90
41060;DHT22;26811;53.160;8.202;2023-03-01T12:26:39;9.10;99.90
41060;DHT22;26811;53.160;8.202;2023-03-01T12:42:17;9.40;99.90
41060;DHT22;26811;53.160;8.202;2023-03-01T12:47:36;9.30;99.90
41060;DHT22;26811;53.160;8.202;2023-03-01T12:52:44;9.20;99.90
41060;DHT22;26811;53.160;8.202;2023-03-01T12:57:53;9.20;99.90
41060;DHT22;26811;53.160;8.202;2023-03-01T13:03:19;9.20;99.90
41060;DHT22;26811;53.160;8.202;2023-03-01T13:08:45;9.20;99.90
41060;DHT22;26811;53.160;8.202;2023-03-01T13:13:48;9.30;99.90
41060;DHT22;26811;53.160;8.202;2023-03-01T13:18:49;9.20;99.90
41060;DHT22;26811;53.160;8.202;2023-03-01T13:23:49;9.30;99.90
41060;DHT22;26811;53.160;8.202;2023-03-01T13:28:52;9.40;99.90
41060;DHT22;26811;53.160;8.202;2023-03-01T13:33:54;9.30;99.90
41060;DHT22;26811;53.160;8.202;2023-03-01T13:38:56;9.30;99.90
41060;DHT22;26811;53.160;8.202;2023-03-01T13:44:00;9.30;99.90
41060;DHT22;26811;53.160;8.202;2023-03-01T13:49:01;9.30;99.90
41060;DHT22;26811;53.160;8.202;2023-03-01T13:54:01;9.00;99.90
41060;DHT22;26811;53.160;8.202;2023-03-01T13:59:05;9.00;99.90
41060;DHT22;26811;53.160;8.202;2023-03-01T14:04:28;9.00;99.90
41060;DHT22;26811;53.160;8.202;2023-03-01T14:09:38;9.00;99.90
41060;DHT22;26811;53.160;8.202;2023-03-01T14:20:24;9.00;99.90
41060;DHT22;26811;53.160;8.202;2023-03-01T14:25:29;9.00;99.90
41060;DHT22;26811;53.160;8.202;2023-03-01T14:30:37;8.90;99.90
41060;DHT22;26811;53.160;8.202;2023-03-01T14:35:39;8.90;99.90
41060;DHT22;26811;53.160;8.202;2023-03-01T14:40:40;8.80;99.90
41060;DHT22;26811;53.160;8.202;2023-03-01T14:45:47;8.80;99.90
41060;DHT22;26811;53.160;8.202;2023-03-01T14:50:49;8.70;99.90
41060;DHT22;26811;53.160;8.202;2023-03-01T14:56:00;8.60;99.90
41060;DHT22;26811;53.160;8.202;2023-03-01T15:01:05;8.50;99.90
41060;DHT22;26811;53.160;8.202;2023-03-01T15:06:07;8.50;99.90
41060;DHT22;26811;53.160;8.202;2023-03-01T15:16:25;8.40;99.90
41060;DHT22;26811;53.160;8.202;2023-03-01T15:21:33;8.20;99.90
41060;DHT22;26811;53.160;8.202;2023-03-01T15:26:42;8.00;99.90
41060;DHT22;26811;53.160;8.202;2023-03-01T15:31:57;7.80;99.90
41060;DHT22;26811;53.160;8.202;2023-03-01T15:37:00;7.70;99.90
41060;DHT22;26811;53.160;8.202;2023-03-01T15:42:01;7.50;99.90
41060;DHT22;26811;53.160;8.202;2023-03-01T15:47:23;7.30;99.90
41060;DHT22;26811;53.160;8.202;2023-03-01T15:52:35;7.20;99.90
41060;DHT22;26811;53.160;8.202;2023-03-01T15:57:39;7.10;99.90
41060;DHT22;26811;53.160;8.202;2023-03-01T16:02:41;7.00;99.90
41060;DHT22;26811;53.160;8.202;2023-03-01T16:07:41;6.80;99.90
41060;DHT22;26811;53.160;8.202;2023-03-01T16:12:42;6.70;99.90
41060;DHT22;26811;53.160;8.202;2023-03-01T16:17:43;6.60;99.90
41060;DHT22;26811;53.160;8.202;2023-03-01T16:22:44;6.40;99.90
41060;DHT22;26811;53.160;8.202;2023-03-01T16:27:47;6.30;99.90
41060;DHT22;26811;53.160;8.202;2023-03-01T16:32:49;6.20;99.90
41060;DHT22;26811;53.160;8.202;2023-03-01T16:37:50;6.00;99.90
41060;DHT22;26811;53.160;8.202;2023-03-01T16:42:54;5.90;99.90
41060;DHT22;26811;53.160;8.202;2023-03-01T16:47:55;5.90;99.90
41060;DHT22;26811;53.160;8.202;2023-03-01T16:52:56;5.70;99.90
41060;DHT22;26811;53.160;8.202;2023-03-01T16:57:56;5.60;99.90
41060;DHT22;26811;53.160;8.202;2023-03-01T17:02:57;5.50;99.90
41060;DHT22;26811;53.160;8.202;2023-03-01T17:07:58;5.30;99.90
41060;DHT22;26811;53.160;8.202;2023-03-01T17:13:00;5.10;99.90
41060;DHT22;26811;53.160;8.202;2023-03-01T17:18:01;5.00;99.90
41060;DHT22;26811;53.160;8.202;2023-03-01T17:23:03;4.80;99.90
41060;DHT22;26811;53.160;8.202;2023-03-01T17:28:04;4.70;99.90
41060;DHT22;26811;53.160;8.202;2023-03-01T17:33:04;4.50;99.90
41060;DHT22;26811;53.160;8.202;2023-03-01T17:38:05;4.30;99.90
41060;DHT22;26811;53.160;8.202;2023-03-01T17:43:07;4.30;99.90
41060;DHT22;26811;53.160;8.202;2023-03-01T17:48:08;4.10;99.90
41060;DHT22;26811;53.160;8.202;2023-03-01T17:53:09;4.00;99.90
41060;DHT22;26811;53.160;8.202;2023-03-01T17:58:11;3.80;99.90
41060;DHT22;26811;53.160;8.202;2023-03-01T18:03:12;3.70;99.90
41060;DHT22;26811;53.160;8.202;2023-03-01T18:08:13;3.60;99.90
41060;DHT22;26811;53.160;8.202;2023-03-01T18:13:13;3.50;99.90
41060;DHT22;26811;53.160;8.202;2023-03-01T18:18:14;3.40;99.90
41060;DHT22;26811;53.160;8.202;2023-03-01T18:23:14;3.50;99.90
41060;DHT22;26811;53.160;8.202;2023-03-01T18:28:15;3.60;99.90
41060;DHT22;26811;53.160;8.202;2023-03-01T18:33:15;3.60;99.90
41060;DHT22;26811;53.160;8.202;2023-03-01T18:38:16;3.70;99.90
41060;DHT22;26811;53.160;8.202;2023-03-01T18:43:17;3.80;99.90
41060;DHT22;26811;53.160;8.202;2023-03-01T18:48:17;3.80;99.90
41060;DHT22;26811;53.160;8.202;2023-03-01T18:53:18;3.80;99.90
41060;DHT22;26811;53.160;8.202;2023-03-01T18:58:18;3.80;99.90
41060;DHT22;26811;53.160;8.202;2023-03-01T19:03:19;3.80;99.90
41060;DHT22;26811;53.160;8.202;2023-03-01T19:08:19;3.80;99.90
41060;DHT22;26811;53.160;8.202;2023-03-01T19:13:20;3.80;99.90
41060;DHT22;26811;53.160;8.202;2023-03-01T19:18:20;3.80;99.90
41060;DHT22;26811;53.160;8.202;2023-03-01T19:23:21;3.70;99.90
41060;DHT22;26811;53.160;8.202;2023-03-01T19:28:21;3.70;99.90
41060;DHT22;26811;53.160;8.202;2023-03-01T19:33:22;3.70;99.90
41060;DHT22;26811;53.160;8.202;2023-03-01T19:38:23;3.60;99.90
41060;DHT22;26811;53.160;8.202;2023-03-01T19:43:23;3.50;99.90
41060;DHT22;26811;53.160;8.202;2023-03-01T19:48:24;3.40;99.90
41060;DHT22;26811;53.160;8.202;2023-03-01T19:53:25;3.40;99.90
41060;DHT22;26811;53.160;8.202;2023-03-01T19:58:27;3.30;99.90
41060;DHT22;26811;53.160;8.202;2023-03-01T20:03:33;3.30;99.90
41060;DHT22;26811;53.160;8.202;2023-03-01T20:08:34;3.30;99.90
41060;DHT22;26811;53.160;8.202;2023-03-01T20:13:35;3.30;99.90
41060;DHT22;26811;53.160;8.202;2023-03-01T20:18:36;3.40;99.90
41060;DHT22;26811;53.160;8.202;2023-03-01T20:23:36;3.30;99.90
41060;DHT22;26811;53.160;8.202;2023-03-01T20:28:37;3.40;99.90
41060;DHT22;26811;53.160;8.202;2023-03-01T20:33:37;3.30;99.90
41060;DHT22;26811;53.160;8.202;2023-03-01T20:38:38;3.30;99.90
41060;DHT22;26811;53.160;8.202;2023-03-01T20:43:41;3.30;99.90
41060;DHT22;26811;53.160;8.202;2023-03-01T20:48:42;3.20;99.90
41060;DHT22;26811;53.160;8.202;2023-03-01T20:53:42;3.10;99.90
41060;DHT22;26811;53.160;8.202;2023-03-01T20:58:43;3.00;99.90
41060;DHT22;26811;53.160;8.202;2023-03-01T21:03:44;3.00;99.90
41060;DHT22;26811;53.160;8.202;2023-03-01T21:08:44;2.90;99.90
41060;DHT22;26811;53.160;8.202;2023-03-01T21:13:45;2.80;99.90
41060;DHT22;26811;53.160;8.202;2023-03-01T21:18:46;2.80;99.90
41060;DHT22;26811;53.160;8.202;2023-03-01T21:23:47;2.80;99.90
41060;DHT22;26811;53.160;8.202;2023-03-01T21:28:52;2.70;99.90
41060;DHT22;26811;53.160;8.202;2023-03-01T21:33:55;2.80;99.90
41060;DHT22;26811;53.160;8.202;2023-03-01T21:38:58;2.70;99.90
41060;DHT22;26811;53.160;8.202;2023-03-01T21:44:01;2.60;99.90
41060;DHT22;26811;53.160;8.202;2023-03-01T21:49:02;2.60;99.90
41060;DHT22;26811;53.160;8.202;2023-03-01T21:54:04;2.60;99.90
41060;DHT22;26811;53.160;8.202;2023-03-01T21:59:10;2.50;99.90
41060;DHT22;26811;53.160;8.202;2023-03-01T22:04:12;2.60;99.90
41060;DHT22;26811;53.160;8.202;2023-03-01T22:09:16;2.50;99.90
41060;DHT22;26811;53.160;8.202;2023-03-01T22:14:17;2.50;99.90
41060;DHT22;26811;53.160;8.202;2023-03-01T22:19:19;2.50;99.90
41060;DHT22;26811;53.160;8.202;2023-03-01T22:24:22;2.50;99.90
41060;DHT22;26811;53.160;8.202;2023-03-01T22:29:25;2.50;99.90
41060;DHT22;26811;53.160;8.202;2023-03-01T22:34:26;2.50;99.90
41060;DHT22;26811;53.160;8.202;2023-03-01T22:39:27;2.50;99.90
41060;DHT22;26811;53.160;8.202;2023-03-01T22:44:27;2.40;99.90
41060;DHT22;26811;53.160;8.202;2023-03-01T22:49:28;2.50;99.90
41060;DHT22;26811;53.160;8.202;2023-03-01T22:54:29;2.50;99.90
41060;DHT22;26811;53.160;8.202;2023-03-01T22:59:29;2.60;99.90
41060;DHT22;26811;53.160;8.202;2023-03-01T23:04:30;2.50;99.90
41060;DHT22;26811;53.160;8.202;2023-03-01T23:09:32;2.50;99.90
41060;DHT22;26811;53.160;8.202;2023-03-01T23:14:34;2.50;99.90
41060;DHT22;26811;53.160;8.202;2023-03-01T23:19:34;2.50;99.90
41060;DHT22;26811;53.160;8.202;2023-03-01T23:24:35;2.50;99.90
41060;DHT22;26811;53.160;8.202;2023-03-01T23:29:36;2.50;99.90
41060;DHT22;26811;53.160;8.202;2023-03-01T23:34:37;2.50;99.90
41060;DHT22;26811;53.160;8.202;2023-03-01T23:39:37;2.40;99.90
41060;DHT22;26811;53.160;8.202;2023-03-01T23:44:39;2.40;99.90
41060;DHT22;26811;53.160;8.202;2023-03-01T23:49:40;2.40;99.90
41060;DHT22;26811;53.160;8.202;2023-03-01T23:54:41;2.40;99.90
41060;DHT22;26811;53.160;8.202;2023-03-01T23:59:42;2.40;99.90
